ZFN YSTW-YSTW

Flight info

Callsign ZFN
Flight time 0h 40m
Altitude 7000
Route YSTW
Aircraft PA34/L-SDFGRY/S

Departure

Time 2026-04-20 07:05
Airport Tamworth Airport (YSTW)

Arrival

Time 2026-04-20 07:45
Airport Tamworth Airport (YSTW)
Time Latitude Longitude Altitude Speed Heading
2026-04-20 06:47 -31.08955 150.84643 1349 ft 0 kts 99°
2026-04-20 06:48 -31.08955 150.84642 1349 ft 0 kts 102°
2026-04-20 06:50 -31.08955 150.84641 1349 ft 0 kts 104°
2026-04-20 06:52 -31.08963 150.84655 1349 ft 0 kts 51°
2026-04-20 06:52 -31.08921 150.84655 1348 ft 9 kts 352°
2026-04-20 06:53 -31.08848 150.84668 1347 ft 13 kts 11°
2026-04-20 06:53 -31.08805 150.84629 1344 ft 10 kts 271°
2026-04-20 06:53 -31.08795 150.84547 1342 ft 11 kts 288°
2026-04-20 06:53 -31.08783 150.84480 1337 ft 4 kts 281°
2026-04-20 06:54 -31.08778 150.84451 1337 ft 0 kts 264°
2026-04-20 06:54 -31.08779 150.84436 1337 ft 6 kts 271°
2026-04-20 06:54 -31.08771 150.84390 1337 ft 7 kts 281°
2026-04-20 06:54 -31.08783 150.84341 1336 ft 0 kts 243°
2026-04-20 06:55 -31.08774 150.84323 1336 ft 0 kts 310°
2026-04-20 06:58 -31.08772 150.84319 1336 ft 1 kts 292°
2026-04-20 06:58 -31.08768 150.84316 1337 ft 7 kts 329°
2026-04-20 06:58 -31.08747 150.84263 1337 ft 6 kts 285°
2026-04-20 06:58 -31.08736 150.84238 1338 ft 5 kts 338°
2026-04-20 06:59 -31.08699 150.84251 1336 ft 2 kts 32°
2026-04-20 06:59 -31.08690 150.84243 1335 ft 5 kts 312°
2026-04-20 06:59 -31.08652 150.84194 1335 ft 11 kts 314°
2026-04-20 06:59 -31.08591 150.84120 1333 ft 13 kts 316°
2026-04-20 07:00 -31.08535 150.84051 1332 ft 11 kts 316°
2026-04-20 07:00 -31.08471 150.83970 1332 ft 16 kts 313°
2026-04-20 07:00 -31.08401 150.83882 1330 ft 14 kts 316°
2026-04-20 07:00 -31.08339 150.83804 1329 ft 12 kts 313°
2026-04-20 07:01 -31.08286 150.83737 1328 ft 10 kts 314°
2026-04-20 07:01 -31.08238 150.83681 1327 ft 10 kts 301°
2026-04-20 07:01 -31.08180 150.83605 1325 ft 14 kts 317°
2026-04-20 07:01 -31.08117 150.83528 1324 ft 13 kts 314°
2026-04-20 07:02 -31.08051 150.83447 1321 ft 14 kts 311°
2026-04-20 07:02 -31.08054 150.83378 1320 ft 11 kts 221°
2026-04-20 07:02 -31.08100 150.83329 1322 ft 8 kts 219°
2026-04-20 07:02 -31.08116 150.83312 1322 ft 0 kts 221°
2026-04-20 07:03 -31.08105 150.83323 1322 ft 0 kts 221°
2026-04-20 07:04 -31.08143 150.83300 1323 ft 6 kts 151°
2026-04-20 07:04 -31.08169 150.83330 1323 ft 21 kts 133°
2026-04-20 07:04 -31.08365 150.83570 1348 ft 55 kts 143°
2026-04-20 07:05 -31.08634 150.83934 1461 ft 62 kts 139°
2026-04-20 07:05 -31.08930 150.84340 1614 ft 69 kts 139°
2026-04-20 07:05 -31.09252 150.84832 1803 ft 80 kts 137°
2026-04-20 07:05 -31.09661 150.85222 2029 ft 74 kts 176°
2026-04-20 07:06 -31.10080 150.84876 2203 ft 85 kts 237°
2026-04-20 07:06 -31.09905 150.84154 2291 ft 110 kts 300°
2026-04-20 07:06 -31.09361 150.83453 2231 ft 120 kts 308°
2026-04-20 07:06 -31.08771 150.82812 2337 ft 113 kts 314°
2026-04-20 07:07 -31.08073 150.82387 2354 ft 117 kts 342°
2026-04-20 07:07 -31.07397 150.81940 2359 ft 108 kts 336°
2026-04-20 07:07 -31.07173 150.82378 1973 ft 86 kts 149°
2026-04-20 07:07 -31.07714 150.82735 1579 ft 93 kts 145°
2026-04-20 07:08 -31.08101 150.83256 1340 ft 71 kts 141°
2026-04-20 07:08 -31.08379 150.83604 1334 ft 58 kts 140°
2026-04-20 07:08 -31.08697 150.83999 1411 ft 74 kts 143°
2026-04-20 07:08 -31.09072 150.84466 1544 ft 83 kts 137°
2026-04-20 07:09 -31.09504 150.84777 1754 ft 74 kts 198°
2026-04-20 07:09 -31.09659 150.84196 1975 ft 98 kts 285°
2026-04-20 07:09 -31.09223 150.83492 1921 ft 114 kts 303°
2026-04-20 07:09 -31.08718 150.82792 1842 ft 109 kts 304°
2026-04-20 07:10 -31.08135 150.82307 1848 ft 95 kts
2026-04-20 07:10 -31.07805 150.82807 1628 ft 86 kts 109°
2026-04-20 07:10 -31.08150 150.83310 1308 ft 68 kts 134°
2026-04-20 07:10 -31.08408 150.83644 1317 ft 59 kts 139°
2026-04-20 07:11 -31.08739 150.84021 1429 ft 74 kts 141°
2026-04-20 07:11 -31.09092 150.84514 1552 ft 83 kts 133°
2026-04-20 07:11 -31.09488 150.84969 1817 ft 74 kts 179°
2026-04-20 07:11 -31.09842 150.84556 1973 ft 96 kts 264°
2026-04-20 07:12 -31.09419 150.83816 2010 ft 116 kts 304°
2026-04-20 07:12 -31.08858 150.83128 1972 ft 125 kts 310°
2026-04-20 07:12 -31.08280 150.82419 1814 ft 114 kts 304°
2026-04-20 07:12 -31.07573 150.82168 1827 ft 111 kts 38°
2026-04-20 07:13 -31.07642 150.82791 1630 ft 82 kts 150°
2026-04-20 07:13 -31.07937 150.83051 1402 ft 79 kts 144°
2026-04-20 07:13 -31.08251 150.83431 1325 ft 51 kts 146°
2026-04-20 07:13 -31.08476 150.83705 1344 ft 55 kts 148°
2026-04-20 07:14 -31.08770 150.84100 1410 ft 69 kts 141°
2026-04-20 07:14 -31.09036 150.84537 1633 ft 69 kts 131°
2026-04-20 07:14 -31.09397 150.84781 1882 ft 61 kts 216°
2026-04-20 07:14 -31.09335 150.84169 1893 ft 105 kts 299°
2026-04-20 07:15 -31.08843 150.83488 1898 ft 107 kts 302°
2026-04-20 07:15 -31.08374 150.82743 1800 ft 118 kts 300°
2026-04-20 07:15 -31.07804 150.82490 1813 ft 85 kts 78°
2026-04-20 07:15 -31.07940 150.83066 1406 ft 74 kts 146°
2026-04-20 07:16 -31.08255 150.83444 1325 ft 52 kts 135°
2026-04-20 07:16 -31.08507 150.83761 1351 ft 64 kts 142°
2026-04-20 07:16 -31.08859 150.84195 1418 ft 81 kts 140°
2026-04-20 07:16 -31.09220 150.84703 1660 ft 81 kts 139°
2026-04-20 07:17 -31.09601 150.84664 1930 ft 77 kts 252°
2026-04-20 07:17 -31.09317 150.83954 1956 ft 116 kts 303°
2026-04-20 07:17 -31.08755 150.83172 1897 ft 132 kts 303°
2026-04-20 07:17 -31.08138 150.82483 1890 ft 94 kts 350°
2026-04-20 07:18 -31.07939 150.82976 1576 ft 91 kts 109°
2026-04-20 07:18 -31.08268 150.83457 1328 ft 62 kts 142°
2026-04-20 07:18 -31.08555 150.83819 1347 ft 71 kts 137°
2026-04-20 07:18 -31.08884 150.84288 1529 ft 77 kts 136°
2026-04-20 07:19 -31.09199 150.84824 1720 ft 82 kts 130°
2026-04-20 07:19 -31.09539 150.85354 1987 ft 83 kts 138°
2026-04-20 07:19 -31.09799 150.85997 2186 ft 94 kts 118°
2026-04-20 07:19 -31.09995 150.86699 2483 ft 87 kts 121°
2026-04-20 07:20 -31.10206 150.87311 2686 ft 85 kts 121°
2026-04-20 07:20 -31.10411 150.87937 2866 ft 85 kts 114°
2026-04-20 07:20 -31.10584 150.88638 2975 ft 90 kts 106°
2026-04-20 07:20 -31.10820 150.89331 3063 ft 95 kts 137°
2026-04-20 07:21 -31.11484 150.89414 3024 ft 115 kts 196°
2026-04-20 07:21 -31.12123 150.88868 3028 ft 115 kts 208°
2026-04-20 07:21 -31.12834 150.88348 2900 ft 121 kts 206°
2026-04-20 07:21 -31.13505 150.87797 2760 ft 115 kts 209°
2026-04-20 07:22 -31.14149 150.87278 2595 ft 112 kts 207°
2026-04-20 07:22 -31.14799 150.86777 2441 ft 111 kts 209°
2026-04-20 07:22 -31.15478 150.86412 2414 ft 101 kts 197°
2026-04-20 07:22 -31.16080 150.86117 2566 ft 87 kts 198°
2026-04-20 07:23 -31.16586 150.85800 2720 ft 81 kts 207°
2026-04-20 07:23 -31.17057 150.85448 2877 ft 80 kts 204°
2026-04-20 07:23 -31.17522 150.85083 3009 ft 82 kts 205°
2026-04-20 07:23 -31.18043 150.84676 3025 ft 96 kts 206°
2026-04-20 07:24 -31.18623 150.84260 3030 ft 99 kts 205°
2026-04-20 07:24 -31.19219 150.83820 3025 ft 105 kts 205°
2026-04-20 07:24 -31.19844 150.83342 3027 ft 109 kts 205°
2026-04-20 07:24 -31.20479 150.82852 3025 ft 109 kts 205°
2026-04-20 07:25 -31.21126 150.82378 3026 ft 112 kts 205°
2026-04-20 07:25 -31.21792 150.81856 3024 ft 117 kts 207°
2026-04-20 07:25 -31.22463 150.81356 3026 ft 112 kts 206°
2026-04-20 07:25 -31.23123 150.80876 3025 ft 115 kts 205°
2026-04-20 07:26 -31.23816 150.80392 3024 ft 117 kts 205°
2026-04-20 07:26 -31.24504 150.79902 3023 ft 115 kts 205°
2026-04-20 07:26 -31.25178 150.79422 3025 ft 112 kts 206°
2026-04-20 07:26 -31.25837 150.78938 3018 ft 112 kts 206°
2026-04-20 07:27 -31.26489 150.78447 3021 ft 111 kts 205°
2026-04-20 07:27 -31.27141 150.77973 3017 ft 110 kts 205°
2026-04-20 07:27 -31.27786 150.77493 3007 ft 109 kts 207°
2026-04-20 07:27 -31.28274 150.76765 3022 ft 117 kts 230°
2026-04-20 07:28 -31.28720 150.75952 3020 ft 121 kts 229°
2026-04-20 07:28 -31.29199 150.75142 3025 ft 120 kts 228°
2026-04-20 07:28 -31.29688 150.74363 3009 ft 118 kts 227°
2026-04-20 07:28 -31.30160 150.73632 3011 ft 108 kts 223°
2026-04-20 07:29 -31.30717 150.73183 3042 ft 86 kts 175°
2026-04-20 07:29 -31.31295 150.73230 3179 ft 82 kts 165°
2026-04-20 07:29 -31.31825 150.73486 3282 ft 83 kts 147°
2026-04-20 07:29 -31.32058 150.74122 3386 ft 94 kts 105°
2026-04-20 07:30 -31.32094 150.74897 3563 ft 103 kts 90°
2026-04-20 07:30 -31.31559 150.75466 3780 ft 99 kts
2026-04-20 07:30 -31.31142 150.74975 3583 ft 95 kts 267°
2026-04-20 07:30 -31.31543 150.74727 3152 ft 65 kts 192°
2026-04-20 07:31 -31.31926 150.74783 3160 ft 46 kts 144°
2026-04-20 07:31 -31.32040 150.74901 3248 ft 13 kts 134°
2026-04-20 07:31 -31.32103 150.74953 3278 ft 7 kts 131°
2026-04-20 07:31 -31.32118 150.74972 3287 ft 1 kts 139°
2026-04-20 07:32 -31.32122 150.74977 3286 ft 1 kts 312°
2026-04-20 07:33 -31.32081 150.74952 3271 ft 9 kts
2026-04-20 07:33 -31.31754 150.75018 3115 ft 78 kts 17°
2026-04-20 07:33 -31.31176 150.74818 3003 ft 105 kts 330°
2026-04-20 07:34 -31.30542 150.74355 3146 ft 108 kts 329°
2026-04-20 07:34 -31.29827 150.74043 3300 ft 96 kts
2026-04-20 07:34 -31.29128 150.74190 3381 ft 104 kts 31°
2026-04-20 07:35 -31.27638 150.74824 3516 ft 129 kts 21°
2026-04-20 07:35 -31.26746 150.75023 3545 ft 137 kts 21°
2026-04-20 07:35 -31.25794 150.75299 3421 ft 143 kts 19°
2026-04-20 07:35 -31.24822 150.75592 3387 ft 143 kts 22°
2026-04-20 07:36 -31.23871 150.75823 3376 ft 142 kts 13°
2026-04-20 07:36 -31.22854 150.75793 3070 ft 147 kts 355°
2026-04-20 07:36 -31.21886 150.75525 2930 ft 137 kts 333°
2026-04-20 07:36 -31.21390 150.74703 3000 ft 121 kts 278°
2026-04-20 07:37 -31.21131 150.73759 3010 ft 124 kts 287°
2026-04-20 07:37 -31.20830 150.72798 3016 ft 127 kts 285°
2026-04-20 07:37 -31.20535 150.71823 3022 ft 128 kts 285°
2026-04-20 07:37 -31.20252 150.70867 3026 ft 121 kts 285°
2026-04-20 07:38 -31.19974 150.69924 3011 ft 123 kts 282°
2026-04-20 07:38 -31.19693 150.68989 3006 ft 118 kts 283°
2026-04-20 07:38 -31.19091 150.68355 3016 ft 126 kts 349°
2026-04-20 07:38 -31.18220 150.68451 3019 ft 127 kts 17°
2026-04-20 07:39 -31.17365 150.68589 3028 ft 125 kts 14°
2026-04-20 07:39 -31.16482 150.68735 3021 ft 128 kts 15°
2026-04-20 07:39 -31.15628 150.68925 3023 ft 122 kts 33°
2026-04-20 07:39 -31.14992 150.69527 3029 ft 115 kts 52°
2026-04-20 07:40 -31.14395 150.70136 3018 ft 115 kts 52°
2026-04-20 07:40 -31.13803 150.70741 3008 ft 110 kts 51°
2026-04-20 07:40 -31.13247 150.71329 3010 ft 106 kts 51°
2026-04-20 07:40 -31.12692 150.71911 3010 ft 108 kts 51°
2026-04-20 07:41 -31.12127 150.72496 3011 ft 110 kts 51°
2026-04-20 07:41 -31.11595 150.73131 3013 ft 110 kts 59°
2026-04-20 07:41 -31.11094 150.73803 3017 ft 110 kts 58°
2026-04-20 07:41 -31.10593 150.74470 3019 ft 109 kts 59°
2026-04-20 07:42 -31.10087 150.75129 3021 ft 108 kts 58°
2026-04-20 07:42 -31.09594 150.75796 3021 ft 108 kts 59°
2026-04-20 07:42 -31.09090 150.76441 3012 ft 107 kts 58°
2026-04-20 07:42 -31.08583 150.77079 3014 ft 108 kts 57°
2026-04-20 07:43 -31.08102 150.77728 3018 ft 107 kts 58°
2026-04-20 07:43 -31.07608 150.78371 3016 ft 106 kts 57°
2026-04-20 07:43 -31.07125 150.79020 3011 ft 107 kts 58°
2026-04-20 07:43 -31.06641 150.79678 3016 ft 106 kts 58°
2026-04-20 07:44 -31.06160 150.80329 2948 ft 104 kts 59°
2026-04-20 07:44 -31.05783 150.81122 2379 ft 114 kts 79°
2026-04-20 07:44 -31.05759 150.82057 1825 ft 115 kts 119°
2026-04-20 07:44 -31.06163 150.82613 1728 ft 75 kts 147°
2026-04-20 07:45 -31.06553 150.82998 1484 ft 73 kts 143°
2026-04-20 07:45 -31.06885 150.83418 1386 ft 66 kts 143°
2026-04-20 07:45 -31.07187 150.83795 1325 ft 64 kts 139°
2026-04-20 07:45 -31.07454 150.84118 1292 ft 44 kts 138°
2026-04-20 07:46 -31.07614 150.84324 1298 ft 29 kts 130°
2026-04-20 07:46 -31.07735 150.84473 1303 ft 23 kts 140°
2026-04-20 07:46 -31.07846 150.84464 1304 ft 15 kts 228°
2026-04-20 07:46 -31.07930 150.84431 1304 ft 13 kts 132°
2026-04-20 07:47 -31.08005 150.84526 1309 ft 19 kts 135°
2026-04-20 07:47 -31.08083 150.84626 1312 ft 13 kts 134°
2026-04-20 07:47 -31.08136 150.84691 1313 ft 9 kts 134°
2026-04-20 07:47 -31.08188 150.84757 1316 ft 15 kts 133°
2026-04-20 07:48 -31.08258 150.84811 1314 ft 10 kts 220°
2026-04-20 07:48 -31.08314 150.84751 1316 ft 12 kts 216°
2026-04-20 07:48 -31.08388 150.84716 1319 ft 11 kts 187°
2026-04-20 07:48 -31.08460 150.84705 1324 ft 8 kts 188°
2026-04-20 07:49 -31.08528 150.84694 1328 ft 16 kts 187°
2026-04-20 07:49 -31.08621 150.84681 1333 ft 15 kts 186°
2026-04-20 07:49 -31.08725 150.84665 1338 ft 14 kts 188°
2026-04-20 07:49 -31.08818 150.84646 1345 ft 16 kts 201°
2026-04-20 07:50 -31.08905 150.84634 1347 ft 9 kts 179°
2026-04-20 07:50 -31.08942 150.84630 1348 ft 9 kts 182°
2026-04-20 07:50 -31.08971 150.84640 1351 ft 0 kts 99°